Time;durP1;ratioP1;P1;durP2;ratioP2;P2;SDS_P1;SDS_P2;PMS_P1;PMS_P2;Temp;Humidity;BMP_temperature;BMP_pressure;BME280_temperature;BME280_humidity;BME280_pressure;Samples;Min_cycle;Max_cycle;Signal;HPM_P1;HPM_P2
2020/12/30 00:02:31;;;;;;;4.13;1.73;;;;;;;1.91;100.00;96036.28;5069163;28;20305;-77
2020/12/30 00:04:58;;;;;;;5.88;1.50;;;;;;;1.91;100.00;96044.28;5086932;28;20064;-78
2020/12/30 00:07:25;;;;;;;6.72;1.40;;;;;;;1.92;100.00;96042.41;5102565;28;20515;-78
2020/12/30 00:09:51;;;;;;;4.78;1.65;;;;;;;1.87;100.00;96044.13;5104414;28;20047;-78
2020/12/30 00:12:18;;;;;;;4.15;1.33;;;;;;;1.86;100.00;96045.19;5059743;28;20484;-79
2020/12/30 00:14:44;;;;;;;4.78;1.70;;;;;;;1.86;100.00;96036.38;5070115;28;20059;-78
2020/12/30 00:17:12;;;;;;;5.15;1.70;;;;;;;1.87;100.00;96044.13;5071172;28;20071;-77
2020/12/30 00:19:38;;;;;;;3.83;1.55;;;;;;;1.84;100.00;96036.69;5063597;28;20049;-78
2020/12/30 00:22:08;;;;;;;4.32;1.98;;;;;;;1.89;100.00;96044.59;5060399;28;20075;-79
2020/12/30 00:24:34;;;;;;;6.18;1.50;;;;;;;1.86;100.00;96044.41;5054922;28;20059;-78
2020/12/30 00:27:04;;;;;;;3.15;1.60;;;;;;;1.89;100.00;96044.59;5062720;28;20102;-79
2020/12/30 00:29:30;;;;;;;4.20;1.55;;;;;;;1.88;100.00;96043.00;5065201;28;20052;-78
2020/12/30 00:31:57;;;;;;;5.63;1.92;;;;;;;1.95;100.00;96045.28;5056509;28;20496;-78
2020/12/30 00:34:24;;;;;;;5.15;1.85;;;;;;;1.99;100.00;96048.94;5071312;28;20048;-79
2020/12/30 00:36:50;;;;;;;6.97;1.90;;;;;;;2.05;100.00;96044.28;5065025;28;20073;-78
2020/12/30 00:39:16;;;;;;;8.05;1.95;;;;;;;2.03;100.00;96049.13;5046898;28;20283;-79
2020/12/30 00:41:44;;;;;;;5.75;1.70;;;;;;;2.02;100.00;96044.88;5053982;28;20045;-79
2020/12/30 00:44:10;;;;;;;4.00;1.75;;;;;;;2.05;100.00;96046.94;5073641;28;20048;-79
2020/12/30 00:46:36;;;;;;;3.30;1.65;;;;;;;2.02;100.00;96050.22;5059083;28;20044;-78
2020/12/30 00:49:03;;;;;;;3.95;1.90;;;;;;;1.92;100.00;96037.88;5053662;28;20051;-78
2020/12/30 00:51:29;;;;;;;4.22;1.60;;;;;;;1.87;100.00;96049.44;5086627;28;20041;-78
2020/12/30 00:53:55;;;;;;;4.28;1.75;;;;;;;1.81;100.00;96047.16;5071487;28;20455;-78
2020/12/30 00:56:21;;;;;;;3.38;1.65;;;;;;;1.77;100.00;96056.88;5071281;28;20087;-79
2020/12/30 00:58:48;;;;;;;5.22;1.77;;;;;;;1.79;100.00;96060.00;5072023;28;20407;-79
2020/12/30 01:01:14;;;;;;;6.25;1.90;;;;;;;1.83;100.00;96053.00;5071582;28;20419;-79
2020/12/30 01:03:40;;;;;;;6.32;1.77;;;;;;;1.91;100.00;96052.28;5073202;28;20047;-78
2020/12/30 01:06:13;;;;;;;2.80;1.50;;;;;;;1.89;100.00;96067.81;5071939;28;20508;-78
2020/12/30 01:08:39;;;;;;;3.65;1.67;;;;;;;1.96;100.00;96064.75;5052471;28;20431;-78
2020/12/30 01:11:06;;;;;;;4.57;1.60;;;;;;;1.79;100.00;96031.47;5060491;23;20105;-77
2020/12/30 01:13:32;;;;;;;4.40;1.45;;;;;;;2.01;100.00;96070.78;5010092;28;20053;-77
2020/12/30 01:16:10;;;;;;;4.35;1.83;;;;;;;1.99;100.00;96056.94;5009500;28;20552;-77
2020/12/30 01:18:38;;;;;;;2.80;1.58;;;;;;;2.00;100.00;96058.53;5011108;28;20033;-77
2020/12/30 01:21:04;;;;;;;5.95;1.50;;;;;;;2.17;100.00;96060.59;5009453;28;20041;-78
2020/12/30 01:23:31;;;;;;;4.25;1.27;;;;;;;2.18;100.00;96062.16;5009163;28;20046;-77
2020/12/30 01:25:57;;;;;;;5.10;1.70;;;;;;;2.18;100.00;96056.81;5008631;28;20129;-77
2020/12/30 01:28:23;;;;;;;8.48;1.75;;;;;;;2.18;100.00;96051.47;5009101;28;20053;-77
2020/12/30 01:30:53;;;;;;;2.88;1.45;;;;;;;2.15;100.00;96055.53;5009681;28;20050;-77
2020/12/30 01:33:19;;;;;;;4.10;1.60;;;;;;;2.03;100.00;96052.59;4978535;28;20335;-76
2020/12/30 01:35:46;;;;;;;4.47;1.58;;;;;;;2.04;100.00;96048.81;5010500;28;20472;-77
2020/12/30 01:38:12;;;;;;;3.55;1.73;;;;;;;2.02;100.00;96050.22;5012236;28;20065;-77
2020/12/30 01:40:38;;;;;;;6.30;2.35;;;;;;;1.98;100.00;96065.25;5013436;28;20049;-77
2020/12/30 01:43:04;;;;;;;6.32;2.35;;;;;;;2.04;100.00;96059.50;5011361;28;20056;-77
2020/12/30 01:45:31;;;;;;;5.03;1.70;;;;;;;2.14;100.00;96059.28;5012628;28;20053;-78
2020/12/30 01:48:01;;;;;;;5.07;1.70;;;;;;;2.20;100.00;96054.63;5010804;28;20049;-77
2020/12/30 01:50:28;;;;;;;5.22;1.55;;;;;;;2.22;100.00;96055.91;5011369;28;20096;-78
2020/12/30 01:53:00;;;;;;;6.03;1.98;;;;;;;2.18;100.00;96065.63;5012150;28;20049;-77
2020/12/30 01:55:28;;;;;;;9.43;1.98;;;;;;;2.16;100.00;96059.78;5012314;28;20510;-77
2020/12/30 01:57:55;;;;;;;3.88;1.80;;;;;;;2.12;100.00;96072.13;5012119;28;20038;-78
2020/12/30 02:00:21;;;;;;;3.75;1.67;;;;;;;2.04;100.00;96072.06;5009689;28;20050;-78
2020/12/30 02:02:57;;;;;;;4.80;2.00;;;;;;;2.01;100.00;96080.66;5008913;28;20413;-77
2020/12/30 02:05:23;;;;;;;;;;;;;;;2.02;100.00;96082.22;5010724;28;20045;-77
2020/12/30 02:07:50;;;;;;;6.75;1.75;;;;;;;1.99;100.00;96083.63;5010407;28;19948;-77
2020/12/30 02:10:17;;;;;;;3.63;1.60;;;;;;;2.02;100.00;96088.34;5010347;28;20045;-77
2020/12/30 02:12:47;;;;;;;6.50;1.80;;;;;;;2.02;100.00;96090.22;5010242;28;20065;-77
2020/12/30 02:15:30;;;;;;;6.22;1.80;;;;;;;1.97;100.00;96088.47;5009127;28;20522;-76
2020/12/30 02:17:58;;;;;;;5.30;1.80;;;;;;;1.95;100.00;96079.97;5010416;28;20042;-79
2020/12/30 02:20:24;;;;;;;8.93;1.80;;;;;;;2.01;100.00;96089.47;5010879;28;20046;-78
2020/12/30 02:23:11;;;;;;;4.90;1.77;;;;;;;2.04;100.00;96080.06;5011034;28;20053;-77
2020/12/30 02:25:38;;;;;;;5.15;1.50;;;;;;;2.05;100.00;96068.28;5009077;28;20249;-76
2020/12/30 02:28:05;;;;;;;5.82;1.80;;;;;;;2.10;100.00;96073.53;5010101;28;20050;-78
2020/12/30 02:30:31;;;;;;;4.70;1.60;;;;;;;2.18;100.00;96073.63;5012946;28;20038;-78
2020/12/30 02:32:57;;;;;;;6.88;1.67;;;;;;;2.18;100.00;96067.47;5011612;28;20092;-79
2020/12/30 02:35:24;;;;;;;6.15;1.50;;;;;;;2.18;100.00;96080.84;5017773;28;20057;-77
2020/12/30 02:37:55;;;;;;;3.83;1.42;;;;;;;2.15;100.00;96068.06;4989989;28;20050;-77
2020/12/30 02:40:21;;;;;;;3.30;1.42;;;;;;;2.19;100.00;96083.22;4995476;28;20050;-78
2020/12/30 02:42:48;;;;;;;5.90;1.70;;;;;;;2.21;100.00;96075.69;4989964;28;20042;-77
2020/12/30 02:45:14;;;;;;;5.78;1.80;;;;;;;2.15;100.00;96070.75;4989963;28;20050;-77
2020/12/30 02:47:40;;;;;;;4.47;1.67;;;;;;;2.13;100.00;96067.59;4988030;28;20046;-76
2020/12/30 02:50:07;;;;;;;3.85;1.60;;;;;;;2.13;100.00;96064.94;4989721;28;20064;-77
2020/12/30 02:52:34;;;;;;;11.23;2.53;;;;;;;2.03;100.00;96071.28;4988835;28;20065;-77
2020/12/30 02:55:01;;;;;;;5.43;1.70;;;;;;;1.95;100.00;96068.50;4988372;28;20083;-78
2020/12/30 02:57:28;;;;;;;3.35;1.40;;;;;;;1.88;100.00;96066.25;4989548;28;20121;-77
2020/12/30 02:59:56;;;;;;;4.03;1.58;;;;;;;1.84;100.00;96067.91;4989959;28;20482;-76
2020/12/30 03:02:26;;;;;;;4.25;1.77;;;;;;;1.80;100.00;96062.41;4990570;28;20058;-76
2020/12/30 03:04:53;;;;;;;5.80;1.75;;;;;;;1.77;100.00;96065.66;4989589;28;20038;-78
2020/12/30 03:07:20;;;;;;;3.45;1.77;;;;;;;1.74;100.00;96078.78;5007778;28;20046;-78
2020/12/30 03:09:47;;;;;;;7.15;2.10;;;;;;;1.67;100.00;96076.53;5008815;28;20053;-78
2020/12/30 03:12:14;;;;;;;5.05;2.22;;;;;;;1.64;100.00;96078.97;5003006;28;20052;-77
2020/12/30 03:14:40;;;;;;;5.47;2.10;;;;;;;1.48;100.00;96067.03;5008168;28;20057;-76
2020/12/30 03:17:07;;;;;;;4.82;2.08;;;;;;;1.46;100.00;96070.00;5007510;28;20058;-76
2020/12/30 03:19:33;;;;;;;4.68;1.70;;;;;;;1.45;100.00;96079.06;5009283;28;20088;-76
2020/12/30 03:22:00;;;;;;;7.40;2.30;;;;;;;1.44;100.00;96087.38;4990358;28;20085;-77
2020/12/30 03:24:26;;;;;;;5.07;2.10;;;;;;;1.31;100.00;96072.94;4990460;28;20046;-76
2020/12/30 03:26:52;;;;;;;6.03;2.33;;;;;;;1.25;100.00;96074.09;5005902;28;20046;-77
2020/12/30 03:29:18;;;;;;;4.22;2.10;;;;;;;1.22;100.00;96093.34;5014863;28;20406;-77
2020/12/30 03:31:44;;;;;;;6.65;1.90;;;;;;;1.08;100.00;96096.00;5027188;28;20057;-75
2020/12/30 03:34:11;;;;;;;4.32;2.05;;;;;;;1.00;100.00;96101.19;5031683;28;20122;-75
2020/12/30 03:36:37;;;;;;;5.50;2.60;;;;;;;0.97;100.00;96113.22;5028930;28;20114;-76
2020/12/30 03:39:04;;;;;;;6.68;2.08;;;;;;;1.03;100.00;96116.59;5013298;28;20454;-75
2020/12/30 03:41:30;;;;;;;3.47;2.00;;;;;;;0.99;100.00;96119.03;5002402;28;20393;-78
2020/12/30 03:43:57;;;;;;;10.00;2.65;;;;;;;0.99;100.00;96111.03;4988644;28;20434;-78
2020/12/30 03:46:23;;;;;;;8.43;2.92;;;;;;;0.97;100.00;96115.88;4991883;28;20049;-78
2020/12/30 03:48:50;;;;;;;5.55;2.75;;;;;;;1.00;100.00;96112.63;4989439;28;20038;-76
2020/12/30 03:51:16;;;;;;;6.70;2.70;;;;;;;0.94;100.00;96121.78;4989992;28;20050;-79
2020/12/30 03:53:43;;;;;;;5.47;2.20;;;;;;;0.90;100.00;96126.13;4991333;28;20050;-76
2020/12/30 03:56:11;;;;;;;6.63;2.47;;;;;;;0.80;100.00;96120.16;4994299;28;20058;-76
2020/12/30 03:58:38;;;;;;;6.15;2.55;;;;;;;0.76;100.00;96130.59;4994970;28;20054;-77
2020/12/30 04:01:23;;;;;;;;;;;;;;;0.72;100.00;96132.25;5004458;28;20074;-78
2020/12/30 04:03:50;;;;;;;7.22;2.58;;;;;;;0.69;100.00;96129.38;5012832;28;20396;-76
2020/12/30 04:06:16;;;;;;;6.50;2.40;;;;;;;0.72;100.00;96120.81;5012979;28;20418;-78
2020/12/30 04:08:43;;;;;;;10.38;2.30;;;;;;;0.73;100.00;96127.69;5011266;28;20049;-77
2020/12/30 04:11:09;;;;;;;4.95;2.33;;;;;;;0.70;100.00;96133.63;5012736;28;20509;-77
2020/12/30 04:13:36;;;;;;;5.05;2.30;;;;;;;0.69;100.00;96138.16;5012782;28;20046;-78
2020/12/30 04:16:05;;;;;;;7.78;2.10;;;;;;;0.73;100.00;96139.16;5012760;28;20041;-77
2020/12/30 04:18:31;;;;;;;5.53;2.30;;;;;;;0.71;100.00;96132.53;5012970;28;20046;-78
2020/12/30 04:20:57;;;;;;;7.43;2.67;;;;;;;0.66;100.00;96140.59;5012652;28;20050;-78
2020/12/30 04:23:23;;;;;;;5.07;2.17;;;;;;;0.65;100.00;96133.69;5012923;28;20052;-78
2020/12/30 04:25:50;;;;;;;6.20;2.50;;;;;;;0.62;100.00;96127.03;5013593;28;20192;-77
2020/12/30 04:28:16;;;;;;;6.47;2.33;;;;;;;0.62;100.00;96127.03;5016155;28;20555;-78
2020/12/30 04:30:43;;;;;;;8.75;2.63;;;;;;;0.50;100.00;96138.13;5015520;28;20050;-76
2020/12/30 04:33:10;;;;;;;5.47;2.35;;;;;;;0.51;100.00;96144.25;5012816;28;20573;-78
2020/12/30 04:35:36;;;;;;;8.25;2.40;;;;;;;0.58;100.00;96148.16;5012321;28;20120;-77
2020/12/30 04:38:04;;;;;;;5.28;2.33;;;;;;;0.51;100.00;96150.38;5010990;28;20383;-76
2020/12/30 04:40:31;;;;;;;5.60;2.35;;;;;;;0.48;100.00;96153.63;5013463;28;20128;-78
2020/12/30 04:43:00;;;;;;;5.13;2.28;;;;;;;0.46;100.00;96145.13;5012430;28;20042;-78
2020/12/30 04:45:27;;;;;;;5.63;2.42;;;;;;;0.45;100.00;96145.41;5012025;28;20054;-77
2020/12/30 04:47:55;;;;;;;5.65;2.30;;;;;;;0.40;100.00;96140.94;5011894;28;20042;-76
2020/12/30 04:50:23;;;;;;;5.53;2.38;;;;;;;0.30;100.00;96148.25;5011386;28;20080;-77
2020/12/30 04:52:50;;;;;;;7.00;2.75;;;;;;;0.25;100.00;96137.69;5012233;28;20108;-76
2020/12/30 04:55:23;;;;;;;6.35;2.40;;;;;;;0.17;100.00;96133.78;5011364;28;20429;-76
2020/12/30 04:58:07;;;;;;;9.00;2.80;;;;;;;0.20;100.00;96138.56;5010737;28;20046;-77
2020/12/30 05:00:36;;;;;;;10.85;2.47;;;;;;;0.19;100.00;96134.28;5011315;28;20449;-77
2020/12/30 05:03:10;;;;;;;9.85;2.70;;;;;;;0.18;100.00;96132.69;4992072;28;20129;-78
2020/12/30 05:05:38;;;;;;;8.20;2.40;;;;;;;0.20;100.00;96143.06;4992838;28;20046;-78
2020/12/30 05:08:13;;;;;;;6.60;2.58;;;;;;;0.15;100.00;96151.91;4992436;28;20121;-77
2020/12/30 05:10:46;;;;;;;6.57;2.47;;;;;;;0.10;100.00;96154.63;4992203;28;20154;-77
2020/12/30 05:13:12;;;;;;;7.72;3.00;;;;;;;0.11;100.00;96150.88;4992035;28;20136;-77
2020/12/30 05:15:39;;;;;;;11.10;2.65;;;;;;;0.07;100.00;96143.75;4992924;28;20054;-77
2020/12/30 05:18:07;;;;;;;8.38;3.03;;;;;;;0.18;100.00;96143.34;5019025;28;20042;-76
2020/12/30 05:20:36;;;;;;;9.48;3.00;;;;;;;0.32;100.00;96162.06;5029147;28;20053;-77
2020/12/30 05:23:07;;;;;;;5.90;2.60;;;;;;;0.41;100.00;96160.38;5031637;28;20327;-76
2020/12/30 05:25:41;;;;;;;6.80;2.63;;;;;;;0.47;100.00;96145.91;5020671;28;20057;-76
2020/12/30 05:28:12;;;;;;;9.73;2.70;;;;;;;0.58;100.00;96152.69;5013264;28;20045;-76
2020/12/30 05:30:42;;;;;;;7.57;2.50;;;;;;;0.69;100.00;96156.00;5011351;28;20171;-75
2020/12/30 05:33:09;;;;;;;4.50;1.92;;;;;;;0.75;100.00;96160.16;5009389;28;20127;-76
2020/12/30 05:35:36;;;;;;;8.88;2.30;;;;;;;0.79;100.00;96161.97;5012014;28;20072;-76
2020/12/30 05:38:03;;;;;;;9.02;2.70;;;;;;;0.87;100.00;96149.88;5009606;28;20052;-76
2020/12/30 05:40:36;;;;;;;4.72;1.90;;;;;;;0.94;100.00;96164.41;5011322;28;20461;-77
2020/12/30 05:43:13;;;;;;;6.00;1.98;;;;;;;0.94;100.00;96158.28;5010177;28;20081;-77
2020/12/30 05:45:53;;;;;;;7.78;2.20;;;;;;;0.87;100.00;96152.53;5017952;28;20041;-76
2020/12/30 05:48:22;;;;;;;6.97;2.00;;;;;;;0.80;100.00;96160.09;5010320;28;20064;-77
2020/12/30 05:50:51;;;;;;;7.22;2.20;;;;;;;0.77;100.00;96161.47;5011918;28;20052;-77
2020/12/30 05:53:19;;;;;;;7.93;2.00;;;;;;;0.84;100.00;96161.09;5012611;28;20128;-76
2020/12/30 05:55:49;;;;;;;6.18;1.83;;;;;;;0.89;100.00;96163.69;5012064;28;20061;-76
2020/12/30 05:58:16;;;;;;;8.43;1.80;;;;;;;0.95;100.00;96170.53;5010541;28;20048;-77
2020/12/30 06:00:46;;;;;;;7.35;2.10;;;;;;;0.93;100.00;96168.13;5011928;28;20501;-78
2020/12/30 06:03:14;;;;;;;6.57;2.60;;;;;;;0.77;100.00;96181.97;5012051;28;20042;-76
2020/12/30 06:05:40;;;;;;;4.70;2.20;;;;;;;0.56;100.00;96173.47;5011918;28;20038;-77
2020/12/30 06:08:07;;;;;;;8.73;2.65;;;;;;;0.32;100.00;96175.38;5012997;28;20034;-76
2020/12/30 06:10:42;;;;;;;6.05;2.20;;;;;;;0.19;100.00;96174.19;5013849;28;20050;-77
2020/12/30 06:13:09;;;;;;;7.18;2.80;;;;;;;0.14;100.00;96186.75;5013684;28;20501;-77
2020/12/30 06:15:36;;;;;;;7.10;2.90;;;;;;;0.05;100.00;96191.16;5010272;28;20060;-77
2020/12/30 06:18:05;;;;;;;7.93;3.85;;;;;;;-0.08;100.00;96201.34;5009474;28;20497;-76
2020/12/30 06:20:36;;;;;;;8.55;3.15;;;;;;;-0.21;100.00;96204.72;5010614;28;20049;-77
2020/12/30 06:23:10;;;;;;;8.63;4.00;;;;;;;-0.26;100.00;96204.72;5010269;28;20121;-76
2020/12/30 06:25:38;;;;;;;12.05;2.92;;;;;;;-0.28;100.00;96214.06;5010848;28;20049;-78
2020/12/30 06:28:15;;;;;;;5.97;3.08;;;;;;;-0.28;100.00;96219.38;5010899;28;20041;-77
2020/12/30 06:30:43;;;;;;;13.13;3.67;;;;;;;-0.34;100.00;96221.31;5008836;28;20457;-77
2020/12/30 06:33:10;;;;;;;9.45;3.13;;;;;;;-0.40;100.00;96230.41;5011131;28;20045;-77
2020/12/30 06:35:40;;;;;;;10.45;3.92;;;;;;;-0.45;100.00;96229.66;5011276;28;20129;-77
2020/12/30 06:38:21;;;;;;;8.80;3.45;;;;;;;-0.47;100.00;96229.13;5010829;28;20525;-76
2020/12/30 06:41:13;;;;;;;7.40;3.30;;;;;;;-0.34;100.00;96229.28;5010661;28;20050;-75
2020/12/30 06:43:41;;;;;;;7.18;2.85;;;;;;;-0.22;100.00;96232.38;5005268;28;20478;-76
2020/12/30 06:46:08;;;;;;;11.35;2.92;;;;;;;-0.14;100.00;96229.09;5008853;28;20402;-76
2020/12/30 06:48:58;;;;;;;9.77;2.92;;;;;;;-0.10;100.00;96237.28;5009023;28;20556;-76
2020/12/30 06:51:35;;;;;;;6.00;3.00;;;;;;;-0.17;100.00;96223.53;5010281;28;20054;-77
2020/12/30 06:54:02;;;;;;;7.35;2.80;;;;;;;-0.07;100.00;96237.53;5006922;28;20054;-76
2020/12/30 06:56:39;;;;;;;6.13;2.60;;;;;;;0.03;100.00;96239.28;4990649;28;20053;-76
2020/12/30 06:59:07;;;;;;;7.15;3.08;;;;;;;0.13;100.00;96241.06;4990514;28;20413;-77
2020/12/30 07:02:02;;;;;;;8.80;2.75;;;;;;;0.17;100.00;96247.41;4998797;28;20057;-76
2020/12/30 07:04:30;;;;;;;8.48;2.83;;;;;;;0.14;100.00;96247.94;5005296;28;20414;-77
2020/12/30 07:06:58;;;;;;;5.25;2.80;;;;;;;0.25;100.00;96241.47;4990056;28;20514;-76
2020/12/30 07:09:35;;;;;;;7.15;2.83;;;;;;;0.39;100.00;96247.66;4989074;28;20394;-77
2020/12/30 07:12:03;;;;;;;8.10;2.88;;;;;;;0.41;100.00;96234.88;5002422;23;20082;-77
2020/12/30 07:14:40;;;;;;;7.88;2.80;;;;;;;0.52;100.00;96231.00;4991390;28;20340;-77
2020/12/30 07:17:11;;;;;;;4.93;2.55;;;;;;;0.71;100.00;96260.34;4989863;28;20073;-77
2020/12/30 07:19:40;;;;;;;5.47;2.45;;;;;;;0.68;100.00;96250.25;4961080;28;20296;-78
2020/12/30 07:22:13;;;;;;;6.85;2.35;;;;;;;0.73;100.00;96266.97;4969571;28;20054;-77
2020/12/30 07:24:45;;;;;;;6.35;2.40;;;;;;;0.78;100.00;96266.91;4983626;28;20422;-78
2020/12/30 07:27:14;;;;;;;8.07;2.70;;;;;;;0.82;100.00;96275.91;4989588;28;20494;-78
2020/12/30 07:29:42;;;;;;;4.97;2.60;;;;;;;0.83;100.00;96269.50;4991547;28;20052;-79
2020/12/30 07:32:10;;;;;;;6.50;2.80;;;;;;;0.84;100.00;96272.94;4994675;28;20205;-79
2020/12/30 07:34:47;;;;;;;4.97;2.78;;;;;;;0.85;100.00;96274.56;4994993;28;20047;-78
2020/12/30 07:37:15;;;;;;;8.68;2.50;;;;;;;0.85;100.00;96272.66;4996934;28;20510;-78
2020/12/30 07:39:43;;;;;;;7.53;3.05;;;;;;;0.85;100.00;96275.31;4993628;28;20423;-78
2020/12/30 07:42:13;;;;;;;5.60;2.33;;;;;;;0.88;100.00;96285.41;4993457;28;20057;-79
2020/12/30 07:44:43;;;;;;;6.55;2.60;;;;;;;0.93;100.00;96279.25;4991250;28;20516;-79
2020/12/30 07:47:10;;;;;;;6.75;2.78;;;;;;;0.98;100.00;96276.50;4987172;28;20053;-79
2020/12/30 07:49:36;;;;;;;7.72;2.75;;;;;;;1.03;100.00;96285.19;4991282;28;20069;-79
2020/12/30 07:52:04;;;;;;;7.93;2.65;;;;;;;1.08;100.00;96273.72;4992334;28;20050;-79
2020/12/30 07:54:32;;;;;;;8.70;3.03;;;;;;;1.13;100.00;96285.09;4993574;28;20050;-78
2020/12/30 07:57:03;;;;;;;7.45;2.75;;;;;;;1.23;100.00;96284.94;4993493;28;20093;-79
2020/12/30 07:59:31;;;;;;;6.10;2.60;;;;;;;1.35;100.00;96287.16;4993366;28;20042;-80
2020/12/30 08:02:06;;;;;;;5.97;2.65;;;;;;;1.40;100.00;96299.63;4992195;28;20047;-78
2020/12/30 08:04:37;;;;;;;8.18;3.20;;;;;;;1.46;100.00;96301.13;4987531;28;20088;-79
2020/12/30 08:07:08;;;;;;;7.97;2.70;;;;;;;1.52;100.00;96300.00;4984704;28;20054;-78
2020/12/30 08:09:36;;;;;;;8.57;2.92;;;;;;;1.62;100.00;96310.50;4979259;28;20055;-77
2020/12/30 08:12:05;;;;;;;7.30;2.78;;;;;;;1.77;100.00;96319.06;4982155;28;20050;-78
2020/12/30 08:14:34;;;;;;;8.07;3.85;;;;;;;2.03;100.00;96311.44;4980248;28;20046;-77
2020/12/30 08:17:05;;;;;;;8.90;3.17;;;;;;;2.44;100.00;96308.84;4983948;28;20153;-78
2020/12/30 08:19:36;;;;;;;7.05;2.85;;;;;;;2.53;100.00;96300.94;4982438;28;20549;-78
2020/12/30 08:22:06;;;;;;;8.02;3.00;;;;;;;2.67;100.00;96309.75;4964644;28;20054;-77
2020/12/30 08:24:36;;;;;;;10.15;3.10;;;;;;;2.56;100.00;96322.50;4981146;28;20289;-76
2020/12/30 08:27:03;;;;;;;5.72;3.05;;;;;;;2.13;100.00;96316.59;4984731;28;20129;-78
2020/12/30 08:29:41;;;;;;;7.65;3.05;;;;;;;2.04;100.00;96317.56;4955491;28;20463;-77
2020/12/30 08:32:07;;;;;;;7.72;3.15;;;;;;;2.44;100.00;96323.00;4976440;28;20046;-77
2020/12/30 08:34:41;;;;;;;7.18;3.22;;;;;;;3.45;100.00;96315.59;4971780;28;20058;-78
2020/12/30 08:37:15;;;;;;;7.40;2.95;;;;;;;3.83;100.00;96324.09;4988267;28;20051;-77
2020/12/30 08:39:51;;;;;;;8.95;3.20;;;;;;;3.16;100.00;96328.53;4976694;28;20043;-77
2020/12/30 08:42:36;;;;;;;;;;;;;;;2.82;100.00;96325.47;4985285;28;20560;-77
2020/12/30 08:45:06;;;;;;;9.63;2.88;;;;;;;2.67;100.00;96328.44;4990214;28;19932;-78
2020/12/30 08:47:37;;;;;;;7.78;3.45;;;;;;;2.58;100.00;96327.56;4973785;28;20047;-77
2020/12/30 08:50:13;;;;;;;8.40;3.28;;;;;;;2.54;100.00;96327.34;4974273;28;20057;-77
2020/12/30 08:52:42;;;;;;;6.03;3.42;;;;;;;2.57;100.00;96323.28;4991844;28;20409;-77
2020/12/30 08:55:10;;;;;;;11.93;3.47;;;;;;;2.76;100.00;96329.34;4975442;28;20156;-78
2020/12/30 08:57:43;;;;;;;6.50;2.65;;;;;;;3.70;100.00;96324.94;4990746;28;20069;-77
2020/12/30 09:00:21;;;;;;;10.35;3.58;;;;;;;3.30;100.00;96325.84;4990200;28;20344;-78
2020/12/30 09:02:49;;;;;;;7.32;3.17;;;;;;;3.18;100.00;96323.66;4990554;28;20509;-77
2020/12/30 09:05:30;;;;;;;7.65;3.25;;;;;;;5.11;100.00;96325.88;4991756;28;20050;-78
2020/12/30 09:08:13;;;;;;;7.32;3.50;;;;;;;5.27;100.00;96316.25;4993359;28;20041;-77
2020/12/30 09:10:40;;;;;;;7.78;3.15;;;;;;;6.24;100.00;96332.59;4994404;28;20413;-78
2020/12/30 09:13:30;;;;;;;7.18;3.03;;;;;;;7.41;100.00;96332.78;4977561;28;20042;-77
2020/12/30 09:16:03;;;;;;;6.82;3.70;;;;;;;7.89;100.00;96331.50;4986257;28;20046;-78
2020/12/30 09:18:30;;;;;;;8.63;3.25;;;;;;;7.02;100.00;96327.75;5011379;28;20049;-78
2020/12/30 09:20:57;;;;;;;5.72;3.30;;;;;;;7.68;100.00;96323.44;5012374;28;20577;-77
2020/12/30 09:23:25;;;;;;;9.73;3.30;;;;;;;8.70;100.00;96323.59;5011796;28;20060;-78
2020/12/30 09:25:51;;;;;;;5.55;3.13;;;;;;;9.24;100.00;96316.91;5012292;28;20046;-76
2020/12/30 09:28:21;;;;;;;5.13;2.70;;;;;;;9.94;100.00;96323.69;5015246;28;20084;-77
2020/12/30 09:30:49;;;;;;;7.30;3.25;;;;;;;10.54;83.16;96330.00;5029982;28;20060;-77
2020/12/30 09:33:21;;;;;;;9.07;2.70;;;;;;;10.38;77.70;96326.47;5013477;28;20049;-77
2020/12/30 09:35:49;;;;;;;6.68;3.15;;;;;;;10.64;76.63;96333.00;5028855;28;20077;-78
2020/12/30 09:38:24;;;;;;;5.85;3.10;;;;;;;10.59;76.56;96327.03;5010928;28;20454;-77
2020/12/30 09:40:52;;;;;;;4.85;2.67;;;;;;;10.80;73.95;96321.41;5011813;28;20045;-78
2020/12/30 09:43:25;;;;;;;4.93;3.00;;;;;;;11.20;71.72;96320.09;4976577;28;20050;-78
2020/12/30 09:46:00;;;;;;;5.18;3.15;;;;;;;12.22;62.39;96329.78;4992582;28;20046;-76
2020/12/30 09:48:26;;;;;;;5.13;3.10;;;;;;;11.83;66.15;96315.38;4990200;28;20129;-79
2020/12/30 09:50:55;;;;;;;5.72;2.97;;;;;;;12.85;59.14;96324.00;4994523;28;20391;-78
2020/12/30 10:03:55;;;;;;;;;;;;;;;;;;;;;
2020/12/30 10:07:18;;;;;;;5.18;2.75;;;;;;;12.08;60.36;96299.63;5009114;28;20509;-77
2020/12/30 10:10:23;;;;;;;4.72;2.67;;;;;;;11.43;62.87;96319.47;4996242;28;20037;-78
2020/12/30 10:12:52;;;;;;;5.15;2.75;;;;;;;10.34;73.00;96302.03;4993552;28;20386;-78
2020/12/30 10:15:40;;;;;;;6.05;2.85;;;;;;;10.74;76.14;96326.28;5009088;28;20053;-77
2020/12/30 10:18:09;;;;;;;4.68;2.63;;;;;;;9.71;87.12;96321.81;4994644;28;20129;-78
2020/12/30 10:20:38;;;;;;;4.97;2.90;;;;;;;8.88;100.00;96302.63;4996792;28;20046;-77
2020/12/30 10:23:06;;;;;;;5.55;2.75;;;;;;;7.48;100.00;96318.81;4997149;28;20603;-78
2020/12/30 10:25:34;;;;;;;5.32;2.92;;;;;;;7.17;100.00;96310.28;5010046;28;20104;-78
2020/12/30 10:28:17;;;;;;;5.65;2.53;;;;;;;6.58;100.00;96323.66;4959612;28;20089;-78
2020/12/30 10:30:45;;;;;;;5.00;2.90;;;;;;;6.28;100.00;96309.34;5001617;28;20084;-78
2020/12/30 10:33:17;;;;;;;5.75;2.60;;;;;;;5.72;100.00;96317.59;4989486;28;20050;-77
2020/12/30 10:35:43;;;;;;;3.75;2.50;;;;;;;5.40;100.00;96315.34;5008379;28;20042;-78
2020/12/30 10:38:10;;;;;;;5.53;2.65;;;;;;;5.08;100.00;96315.75;5008584;28;20046;-78
2020/12/30 10:40:36;;;;;;;4.70;2.67;;;;;;;4.98;100.00;96320.28;4975567;28;20049;-78
2020/12/30 10:43:03;;;;;;;5.63;2.67;;;;;;;4.85;100.00;96315.06;4992645;28;20257;-77
2020/12/30 10:45:30;;;;;;;6.18;3.08;;;;;;;4.85;100.00;96309.69;4991544;28;20038;-77
2020/12/30 10:47:56;;;;;;;6.25;2.70;;;;;;;4.88;100.00;96320.56;4959417;28;20513;-78
2020/12/30 10:50:23;;;;;;;4.63;2.70;;;;;;;4.82;100.00;96313.78;5009436;28;20049;-78
2020/12/30 10:52:50;;;;;;;7.45;2.75;;;;;;;4.77;100.00;96310.44;4975596;28;20116;-76
2020/12/30 10:55:17;;;;;;;5.50;2.70;;;;;;;4.73;100.00;96317.53;5009637;28;20041;-78
2020/12/30 10:57:44;;;;;;;4.97;2.75;;;;;;;4.82;100.00;96303.06;4976212;28;20065;-78
2020/12/30 11:00:12;;;;;;;4.97;2.63;;;;;;;4.84;100.00;96303.53;4991751;28;20162;-78
2020/12/30 11:02:38;;;;;;;4.47;2.58;;;;;;;4.86;100.00;96308.56;4991724;28;20046;-77
2020/12/30 11:05:05;;;;;;;5.10;2.28;;;;;;;4.85;100.00;96309.69;4976808;28;20065;-79
2020/12/30 11:07:31;;;;;;;5.72;2.85;;;;;;;4.84;100.00;96311.59;5014115;28;20058;-79
2020/12/30 11:09:57;;;;;;;5.10;2.70;;;;;;;4.88;100.00;96304.50;5009015;28;20047;-77
2020/12/30 11:12:24;;;;;;;4.68;2.22;;;;;;;4.80;100.00;96310.59;4991820;28;20049;-79
2020/12/30 11:14:50;;;;;;;5.63;2.60;;;;;;;4.88;100.00;96312.53;4991651;28;20046;-78
2020/12/30 11:17:16;;;;;;;4.82;1.92;;;;;;;4.89;100.00;96300.72;4991555;28;20045;-77
2020/12/30 11:19:42;;;;;;;4.72;2.10;;;;;;;4.83;100.00;96309.19;4991822;28;20042;-78
2020/12/30 11:22:09;;;;;;;4.22;2.08;;;;;;;4.81;100.00;96304.16;5009658;28;20046;-79
2020/12/30 11:24:38;;;;;;;4.80;2.33;;;;;;;4.86;100.00;96301.34;4994697;28;20120;-78
2020/12/30 11:27:05;;;;;;;5.90;1.70;;;;;;;4.86;100.00;96309.38;5003438;28;20041;-77
2020/12/30 11:29:32;;;;;;;3.88;2.10;;;;;;;4.86;100.00;96304.00;5005434;28;20500;-78
2020/12/30 11:32:01;;;;;;;4.45;2.08;;;;;;;5.06;100.00;96299.97;4999978;28;20073;-78
2020/12/30 11:34:27;;;;;;;5.15;2.00;;;;;;;5.12;100.00;96295.25;5009897;28;20216;-80
2020/12/30 11:36:53;;;;;;;4.60;2.25;;;;;;;5.35;100.00;96297.50;4985670;28;20045;-79
2020/12/30 11:39:20;;;;;;;5.68;2.08;;;;;;;5.85;100.00;96303.25;5009476;28;20520;-79
2020/12/30 11:41:50;;;;;;;4.00;1.83;;;;;;;7.15;100.00;96304.44;4998811;28;20049;-79
2020/12/30 11:44:18;;;;;;;3.35;1.80;;;;;;;8.20;100.00;96309.53;5005765;28;20054;-78
2020/12/30 11:46:50;;;;;;;3.35;1.90;;;;;;;9.08;100.00;96304.44;5008331;28;20042;-80
2020/12/30 11:49:16;;;;;;;5.07;1.77;;;;;;;9.67;100.00;96305.50;5011933;28;20129;-79
2020/12/30 11:51:43;;;;;;;3.42;1.70;;;;;;;10.24;100.00;96307.16;5005889;28;20053;-79
2020/12/30 11:54:10;;;;;;;2.88;1.77;;;;;;;10.04;100.00;96309.66;4992176;28;20050;-79
2020/12/30 11:56:36;;;;;;;3.03;1.77;;;;;;;9.74;100.00;96300.31;4997508;28;20052;-79